createdAt,value
2022-10-05T00:01:31.061Z,101700.00
2022-10-05T00:04:15.357Z,101693.94
2022-10-05T00:06:44.338Z,101695.69
2022-10-05T00:09:16.052Z,101687.03
2022-10-05T00:11:43.790Z,101687.88
2022-10-05T00:14:35.285Z,101689.63
2022-10-05T00:17:04.549Z,101683.56
2022-10-05T00:19:38.280Z,101679.22
2022-10-05T00:22:28.951Z,101687.00
2022-10-05T00:24:58.890Z,101668.84
2022-10-05T00:27:37.619Z,101674.06
2022-10-05T00:30:23.408Z,101665.41
2022-10-05T00:32:50.330Z,101670.56
2022-10-05T00:35:18.819Z,101658.47
2022-10-05T00:37:47.149Z,101658.47
2022-10-05T00:40:35.404Z,101661.06
2022-10-05T00:43:17.847Z,101660.16
2022-10-05T00:45:51.610Z,101665.38
2022-10-05T00:48:34.654Z,101653.25
2022-10-05T00:51:24.855Z,101647.19
2022-10-05T00:54:00.868Z,101658.47
2022-10-05T00:56:33.172Z,101654.13
2022-10-05T00:59:10.514Z,101646.34
2022-10-05T01:01:44.887Z,101646.31
2022-10-05T01:04:39.897Z,101646.34
2022-10-05T01:07:43.767Z,101642.00
2022-10-05T01:10:30.728Z,101626.44
2022-10-05T01:13:17.277Z,101611.69
2022-10-05T01:16:02.482Z,101609.09
2022-10-05T01:18:54.298Z,101602.16
2022-10-05T01:21:23.634Z,101598.69
2022-10-05T01:23:58.979Z,101603.03
2022-10-05T01:26:42.345Z,101601.31
2022-10-05T01:29:30.173Z,101607.38
2022-10-05T01:32:02.692Z,101603.91
2022-10-05T01:34:41.301Z,101590.09
2022-10-05T01:37:19.267Z,101601.31
2022-10-05T01:40:14.069Z,101590.94
2022-10-05T01:42:56.037Z,101565.81
2022-10-05T01:45:40.426Z,101571.91
2022-10-05T01:48:22.092Z,101559.75
2022-10-05T01:51:19.087Z,101539.81
2022-10-05T01:53:51.593Z,101550.25
2022-10-05T01:56:39.725Z,101530.31
2022-10-05T01:59:18.967Z,101542.44
2022-10-05T02:01:58.620Z,101536.41
2022-10-05T02:07:29.965Z,101543.34
2022-10-05T02:10:25.737Z,101552.84
2022-10-05T02:12:55.882Z,101545.91
2022-10-05T02:15:33.685Z,101525.16
2022-10-05T02:18:07.867Z,101529.44
2022-10-05T02:20:37.552Z,101520.81
2022-10-05T02:23:09.423Z,101518.19
2022-10-05T02:25:40.219Z,101514.72
2022-10-05T02:28:15.568Z,101518.19
2022-10-05T02:30:52.855Z,101525.97
2022-10-05T02:33:26.067Z,101524.25
2022-10-05T02:35:52.949Z,101525.13
2022-10-05T02:38:41.755Z,101536.38
2022-10-05T02:41:26.940Z,101542.44
2022-10-05T02:44:11.304Z,101521.66
2022-10-05T02:47:00.828Z,101536.38
2022-10-05T02:50:05.938Z,101532.91
2022-10-05T02:52:54.440Z,101539.84
2022-10-05T02:55:27.013Z,101546.75
2022-10-05T02:58:05.961Z,101547.59
2022-10-05T03:00:40.066Z,101544.16
2022-10-05T03:03:15.924Z,101541.53
2022-10-05T03:05:53.595Z,101540.69
2022-10-05T03:08:31.821Z,101540.69
2022-10-05T03:11:18.517Z,101526.84
2022-10-05T03:13:56.553Z,101538.09
2022-10-05T03:16:50.932Z,101538.06
2022-10-05T03:19:46.537Z,101527.72
2022-10-05T03:22:28.088Z,101531.16
2022-10-05T03:24:55.103Z,101519.06
2022-10-05T03:27:40.658Z,101522.50
2022-10-05T03:30:16.370Z,101520.78
2022-10-05T03:32:51.941Z,101519.91
2022-10-05T03:35:28.082Z,101512.13
2022-10-05T03:38:16.472Z,101515.56
2022-10-05T03:40:52.052Z,101516.44
2022-10-05T03:43:43.530Z,101513.84
2022-10-05T03:46:18.715Z,101512.97
2022-10-05T03:48:58.312Z,101513.84
2022-10-05T03:51:31.792Z,101506.94
2022-10-05T03:54:10.207Z,101502.59
2022-10-05T03:56:44.327Z,101501.75
2022-10-05T03:59:19.628Z,101499.13
2022-10-05T04:01:51.406Z,101502.59
2022-10-05T04:04:34.931Z,101498.28
2022-10-05T04:07:02.235Z,101496.53
2022-10-05T04:09:40.679Z,101498.28
2022-10-05T04:12:33.390Z,101502.59
2022-10-05T04:15:07.034Z,101484.41
2022-10-05T04:17:40.568Z,101494.81
2022-10-05T04:20:21.111Z,101488.75
2022-10-05T04:23:05.041Z,101471.44
2022-10-05T04:25:46.241Z,101476.66
2022-10-05T04:28:26.996Z,101475.78
2022-10-05T04:30:56.335Z,101474.06
2022-10-05T04:33:22.978Z,101468.84
2022-10-05T04:35:52.396Z,101464.53
2022-10-05T04:38:43.716Z,101471.44
2022-10-05T04:41:37.420Z,101459.34
2022-10-05T04:44:06.906Z,101459.34
2022-10-05T04:47:10.769Z,101463.66
2022-10-05T04:49:49.417Z,101455.88
2022-10-05T04:52:51.116Z,101452.44
2022-10-05T04:55:20.628Z,101450.69
2022-10-05T04:58:02.296Z,101449.84
2022-10-05T05:00:42.183Z,101440.31
2022-10-05T05:03:30.033Z,101438.59
2022-10-05T05:06:17.344Z,101445.50
2022-10-05T05:09:18.301Z,101451.56
2022-10-05T05:12:12.911Z,101442.91
2022-10-05T05:14:57.444Z,101436.00
2022-10-05T05:17:33.068Z,101439.47
2022-10-05T05:20:10.464Z,101435.97
2022-10-05T05:22:53.370Z,101433.38
2022-10-05T05:25:43.956Z,101424.72
2022-10-05T05:28:29.357Z,101425.59
2022-10-05T05:31:05.004Z,101426.47
2022-10-05T05:34:07.032Z,101438.59
2022-10-05T05:36:50.606Z,101423.00
2022-10-05T05:39:27.772Z,101428.22
2022-10-05T05:42:23.481Z,101413.50
2022-10-05T05:44:52.190Z,101435.97
2022-10-05T05:47:35.282Z,101430.81
2022-10-05T05:50:10.976Z,101431.66
2022-10-05T05:52:45.671Z,101427.34
2022-10-05T05:55:15.458Z,101429.94
2022-10-05T05:57:50.410Z,101423.00
2022-10-05T06:00:37.048Z,101415.22
2022-10-05T06:03:12.428Z,101434.25
2022-10-05T06:05:50.066Z,101431.69
2022-10-05T06:08:41.952Z,101435.13
2022-10-05T06:11:35.800Z,101433.41
2022-10-05T06:14:10.545Z,101446.34
2022-10-05T06:16:46.426Z,101435.13
2022-10-05T06:19:20.443Z,101441.16
2022-10-05T06:22:25.417Z,101450.72
2022-10-05T06:25:18.923Z,101447.22
2022-10-05T06:28:14.256Z,101442.03
2022-10-05T06:31:11.185Z,101442.91
2022-10-05T06:33:46.517Z,101441.16
2022-10-05T06:36:37.389Z,101438.59
2022-10-05T06:39:12.991Z,101440.28
2022-10-05T06:41:48.578Z,101443.75
2022-10-05T06:44:25.914Z,101433.38
2022-10-05T06:47:10.725Z,101448.94
2022-10-05T06:49:42.952Z,101435.09
2022-10-05T06:52:44.801Z,101442.03
2022-10-05T06:55:28.117Z,101440.28
2022-10-05T06:58:32.095Z,101442.88
2022-10-05T07:01:05.092Z,101438.56
2022-10-05T07:04:14.649Z,101439.41
2022-10-05T07:06:51.045Z,101435.97
2022-10-05T07:09:24.184Z,101444.63
2022-10-05T07:12:06.339Z,101439.41
2022-10-05T07:15:06.914Z,101443.75
2022-10-05T07:17:44.260Z,101442.03
2022-10-05T07:20:16.836Z,101442.91
2022-10-05T07:23:12.014Z,101439.41
2022-10-05T07:25:50.364Z,101435.94
2022-10-05T07:28:33.218Z,101432.50
2022-10-05T07:31:26.230Z,101435.06
2022-10-05T07:34:04.959Z,101435.09
2022-10-05T07:37:13.956Z,101434.19
2022-10-05T07:40:00.552Z,101435.91
2022-10-05T07:43:00.008Z,101434.19
2022-10-05T07:45:28.823Z,101434.19
2022-10-05T07:47:59.471Z,101427.25
2022-10-05T07:50:31.484Z,101419.47
2022-10-05T07:53:02.598Z,101421.19
2022-10-05T07:55:38.849Z,101422.03
2022-10-05T07:58:33.104Z,101422.00
2022-10-05T08:01:22.120Z,101423.75
2022-10-05T08:04:12.196Z,101415.06
2022-10-05T08:06:49.920Z,101402.09
2022-10-05T08:09:26.166Z,101417.66
2022-10-05T08:12:20.602Z,101423.72
2022-10-05T08:15:16.464Z,101418.53
2022-10-05T08:17:53.008Z,101405.53
2022-10-05T08:20:19.443Z,101411.56
2022-10-05T08:23:06.551Z,101401.19
2022-10-05T08:25:46.460Z,101394.25
2022-10-05T08:28:33.333Z,101409.84
2022-10-05T08:31:19.097Z,101399.44
2022-10-05T08:34:11.963Z,101389.91
2022-10-05T08:36:55.798Z,101397.63
2022-10-05T08:39:27.064Z,101388.06
2022-10-05T08:42:26.271Z,101385.47
2022-10-05T08:45:12.784Z,101387.22
2022-10-05T08:48:04.791Z,101391.53
2022-10-05T08:50:56.898Z,101378.53
2022-10-05T08:53:29.116Z,101387.16
2022-10-05T08:56:29.012Z,101372.41
2022-10-05T08:59:15.727Z,101373.28
2022-10-05T09:02:00.423Z,101383.69
2022-10-05T09:07:23.443Z,101368.91
2022-10-05T09:10:33.888Z,101364.50
2022-10-05T09:13:38.983Z,101360.13
2022-10-05T09:16:30.068Z,101351.44
2022-10-05T09:19:34.316Z,101364.44
2022-10-05T09:22:34.929Z,101374.81
2022-10-05T09:25:34.753Z,101361.81
2022-10-05T09:28:22.344Z,101361.78
2022-10-05T09:30:56.514Z,101359.16
2022-10-05T09:33:37.991Z,101366.03
2022-10-05T09:36:26.267Z,101364.25
2022-10-05T09:39:01.603Z,101352.88
2022-10-05T09:41:36.953Z,101356.31
2022-10-05T09:44:22.168Z,101357.09
2022-10-05T09:47:07.432Z,101348.41
2022-10-05T09:49:52.423Z,101359.63
2022-10-05T09:52:29.309Z,101350.84
2022-10-05T09:55:16.066Z,101340.31
2022-10-05T09:58:12.485Z,101328.16
2022-10-05T10:01:09.407Z,101341.13
2022-10-05T10:04:13.898Z,101339.25
2022-10-05T10:06:54.552Z,101338.34
2022-10-05T10:09:42.575Z,101337.56
2022-10-05T10:12:18.417Z,101334.22
2022-10-05T10:14:53.891Z,101339.53
2022-10-05T10:17:44.111Z,101338.66
2022-10-05T10:20:35.518Z,101335.16
2022-10-05T10:23:14.235Z,101329.94
2022-10-05T10:25:59.504Z,101329.16
2022-10-05T10:28:46.126Z,101329.94
2022-10-05T10:31:24.794Z,101331.72
2022-10-05T10:34:08.294Z,101334.38
2022-10-05T10:36:59.965Z,101326.56
2022-10-05T10:39:45.241Z,101320.41
2022-10-05T10:42:30.511Z,101332.56
2022-10-05T10:45:07.536Z,101330.00
2022-10-05T10:47:50.065Z,101335.28
2022-10-05T10:50:38.373Z,101334.44
2022-10-05T10:53:19.866Z,101334.47
2022-10-05T10:56:14.495Z,101338.88
2022-10-05T10:59:18.399Z,101333.72
2022-10-05T11:02:05.704Z,101328.56
2022-10-05T11:05:06.190Z,101325.91
2022-10-05T11:07:43.545Z,101324.16
2022-10-05T11:10:18.429Z,101327.56
2022-10-05T11:12:45.070Z,101319.91
2022-10-05T11:15:37.918Z,101323.34
2022-10-05T11:18:32.026Z,101319.06
2022-10-05T11:21:13.497Z,101331.06
2022-10-05T11:24:11.051Z,101333.75
2022-10-05T11:27:10.082Z,101309.53
2022-10-05T11:30:06.012Z,101315.59
2022-10-05T11:33:01.390Z,101316.41
2022-10-05T11:35:41.390Z,101316.31
2022-10-05T11:38:13.671Z,101315.41
2022-10-05T11:41:02.206Z,101311.84
2022-10-05T11:44:06.220Z,101306.56
2022-10-05T11:46:49.178Z,101299.69
2022-10-05T11:49:28.570Z,101298.81
2022-10-05T11:52:13.054Z,101300.44
2022-10-05T11:55:12.008Z,101283.16
2022-10-05T11:57:57.640Z,101306.56
2022-10-05T12:00:40.376Z,101301.38
2022-10-05T12:03:32.131Z,101279.63
2022-10-05T12:06:01.566Z,101279.56
2022-10-05T12:09:20.530Z,101272.53
2022-10-05T12:12:15.820Z,101268.84
2022-10-05T12:15:03.446Z,101274.00
2022-10-05T12:17:38.712Z,101257.44
2022-10-05T12:20:30.433Z,101248.84
2022-10-05T12:23:13.643Z,101268.00
2022-10-05T12:25:56.747Z,101268.00
2022-10-05T12:28:33.575Z,101275.00
2022-10-05T12:31:25.050Z,101255.09
2022-10-05T12:34:03.949Z,101266.09
2022-10-05T12:37:03.607Z,101268.84
2022-10-05T12:39:42.039Z,101254.81
2022-10-05T12:42:24.071Z,101247.91
2022-10-05T12:45:13.258Z,101255.41
2022-10-05T12:47:53.471Z,101248.41
2022-10-05T12:50:28.247Z,101249.25
2022-10-05T12:53:22.413Z,101249.22
2022-10-05T12:56:08.347Z,101257.97
2022-10-05T12:58:46.824Z,101259.06
2022-10-05T13:01:28.968Z,101246.88
2022-10-05T13:04:14.818Z,101255.59
2022-10-05T13:07:08.955Z,101259.13
2022-10-05T13:09:43.279Z,101258.16
2022-10-05T13:12:21.217Z,101248.72
2022-10-05T13:15:02.792Z,101239.06
2022-10-05T13:17:52.063Z,101243.41
2022-10-05T13:20:29.562Z,101248.69
2022-10-05T13:23:18.095Z,101249.53
2022-10-05T13:26:03.210Z,101246.03
2022-10-05T13:28:39.147Z,101239.81
2022-10-05T13:31:11.952Z,101236.31
2022-10-05T13:34:06.746Z,101234.56
2022-10-05T13:36:48.535Z,101224.25
2022-10-05T13:39:27.762Z,101232.97
2022-10-05T13:42:05.041Z,101236.38
2022-10-05T13:44:37.602Z,101232.09
2022-10-05T13:47:45.794Z,101230.19
2022-10-05T13:50:24.827Z,101230.31
2022-10-05T13:53:13.849Z,101231.94
2022-10-05T13:56:10.515Z,101232.78
2022-10-05T13:58:47.577Z,101243.16
2022-10-05T14:01:22.507Z,101232.72
2022-10-05T14:04:04.155Z,101237.13
2022-10-05T14:06:32.576Z,101231.88
2022-10-05T14:08:59.880Z,101227.50
2022-10-05T14:11:37.036Z,101223.28
2022-10-05T14:14:15.186Z,101232.88
2022-10-05T14:16:51.547Z,101234.69
2022-10-05T14:19:32.170Z,101232.03
2022-10-05T14:22:10.333Z,101237.22
2022-10-05T14:24:46.539Z,101233.97
2022-10-05T14:27:24.006Z,101242.63
2022-10-05T14:30:20.410Z,101236.59
2022-10-05T14:32:57.255Z,101244.41
2022-10-05T14:35:28.134Z,101253.22
2022-10-05T14:38:01.073Z,101251.44
2022-10-05T14:40:37.286Z,101246.16
2022-10-05T14:43:16.056Z,101240.94
2022-10-05T14:46:03.367Z,101244.47
2022-10-05T14:48:42.420Z,101245.25
2022-10-05T14:51:25.331Z,101228.00
2022-10-05T14:54:14.927Z,101242.66
2022-10-05T14:57:25.223Z,101246.97
2022-10-05T15:00:04.083Z,101241.59
2022-10-05T15:02:47.961Z,101236.38
2022-10-05T15:05:20.934Z,101233.91
2022-10-05T15:07:49.808Z,101231.47
2022-10-05T15:10:31.146Z,101232.34
2022-10-05T15:13:11.940Z,101218.34
2022-10-05T15:15:54.699Z,101228.91
2022-10-05T15:18:34.728Z,101242.84
2022-10-05T15:21:26.475Z,101243.78
2022-10-05T15:24:14.427Z,101241.22
2022-10-05T15:27:00.718Z,101257.72
2022-10-05T15:29:52.029Z,101236.00
2022-10-05T15:32:30.050Z,101236.97
2022-10-05T15:35:03.990Z,101247.44
2022-10-05T15:38:19.517Z,101249.09
2022-10-05T15:41:09.805Z,101237.97
2022-10-05T15:43:42.123Z,101247.47
2022-10-05T15:46:15.355Z,101252.63
2022-10-05T15:48:48.491Z,101255.28
2022-10-05T15:51:45.155Z,101259.63
2022-10-05T15:54:30.334Z,101260.53
2022-10-05T15:57:10.624Z,101252.75
2022-10-05T15:59:54.955Z,101255.41
2022-10-05T16:02:29.830Z,101269.38
2022-10-05T16:05:05.200Z,101284.94
2022-10-05T16:08:02.042Z,101268.47
2022-10-05T16:10:34.099Z,101271.94
2022-10-05T16:13:16.903Z,101271.91
2022-10-05T16:15:56.008Z,101247.72
2022-10-05T16:18:45.607Z,101274.47
2022-10-05T16:21:29.619Z,101250.25
2022-10-05T16:23:56.085Z,101267.53
2022-10-05T16:26:55.403Z,101263.31
2022-10-05T16:29:39.352Z,101257.25
2022-10-05T16:32:13.950Z,101263.38
2022-10-05T16:34:54.216Z,101270.28
2022-10-05T16:37:32.863Z,101270.28
2022-10-05T16:40:05.361Z,101277.25
2022-10-05T16:42:54.344Z,101273.69
2022-10-05T16:45:45.443Z,101276.34
2022-10-05T16:48:21.085Z,101280.66
2022-10-05T16:51:26.272Z,101255.63
2022-10-05T16:54:38.438Z,101269.44
2022-10-05T16:57:19.920Z,101265.09
2022-10-05T17:00:16.088Z,101270.28
2022-10-05T17:03:01.530Z,101273.78
2022-10-05T17:05:34.790Z,101282.50
2022-10-05T17:08:11.278Z,101279.84
2022-10-05T17:10:57.231Z,101283.41
2022-10-05T17:13:36.844Z,101285.00
2022-10-05T17:16:25.808Z,101277.25
2022-10-05T17:19:04.402Z,101284.22
2022-10-05T17:21:38.926Z,101285.19
2022-10-05T17:24:38.257Z,101280.00
2022-10-05T17:27:20.375Z,101292.16
2022-10-05T17:29:55.964Z,101294.78
2022-10-05T17:32:22.406Z,101307.78
2022-10-05T17:35:01.363Z,101302.53
2022-10-05T17:37:27.802Z,101305.19
2022-10-05T17:39:56.185Z,101299.97
2022-10-05T17:42:34.214Z,101307.78
2022-10-05T17:45:20.712Z,101308.63
2022-10-05T17:48:04.956Z,101314.66
2022-10-05T17:51:02.145Z,101314.66
2022-10-05T17:54:05.243Z,101319.00
2022-10-05T17:56:47.152Z,101315.56
2022-10-05T17:59:52.197Z,101319.84
2022-10-05T18:02:39.905Z,101332.03
2022-10-05T18:05:12.582Z,101331.06
2022-10-05T18:07:50.293Z,101317.25
2022-10-05T18:10:29.072Z,101326.81
2022-10-05T18:12:58.665Z,101331.88
2022-10-05T18:15:25.131Z,101327.53
2022-10-05T18:17:57.410Z,101335.38
2022-10-05T18:20:31.812Z,101329.31
2022-10-05T18:23:07.337Z,101337.97
2022-10-05T18:25:38.412Z,101319.78
2022-10-05T18:28:20.120Z,101324.13
2022-10-05T18:31:08.901Z,101324.16
2022-10-05T18:33:44.644Z,101332.88
2022-10-05T18:36:20.497Z,101332.91
2022-10-05T18:39:26.838Z,101335.47
2022-10-05T18:42:41.889Z,101343.28
2022-10-05T18:45:45.823Z,101354.44
2022-10-05T18:48:26.456Z,101357.16
2022-10-05T18:51:04.670Z,101364.03
2022-10-05T18:54:15.654Z,101363.16
2022-10-05T18:56:45.579Z,101383.09
2022-10-05T18:59:36.491Z,101386.47
2022-10-05T19:02:36.552Z,101403.00
2022-10-05T19:05:23.825Z,101401.38
2022-10-05T19:08:17.438Z,101413.63
2022-10-05T19:10:48.434Z,101430.25
2022-10-05T19:13:39.649Z,101452.00
2022-10-05T19:16:15.351Z,101498.88
2022-10-05T19:19:01.315Z,101507.59
2022-10-05T19:21:41.403Z,101525.00
2022-10-05T19:24:40.623Z,101518.16
2022-10-05T19:27:11.786Z,101509.56
2022-10-05T19:30:02.153Z,101513.00
2022-10-05T19:32:48.203Z,101509.53
2022-10-05T19:35:30.280Z,101530.31
2022-10-05T19:41:22.507Z,101533.75
2022-10-05T19:44:06.079Z,101534.63
2022-10-05T19:47:06.911Z,101554.53
2022-10-05T19:49:37.491Z,101556.25
2022-10-05T19:52:10.861Z,101568.34
2022-10-05T19:54:37.751Z,101578.75
2022-10-05T19:57:17.020Z,101590.84
2022-10-05T19:59:47.853Z,101602.91
2022-10-05T20:02:17.505Z,101601.19
2022-10-05T20:04:49.340Z,101614.16
2022-10-05T20:07:20.783Z,101625.41
2022-10-05T20:10:14.353Z,101633.19
2022-10-05T20:12:51.339Z,101636.63
2022-10-05T20:15:48.185Z,101636.59
2022-10-05T20:19:01.428Z,101647.84
2022-10-05T20:21:47.922Z,101658.25
2022-10-05T20:24:15.865Z,101639.13
2022-10-05T20:27:03.676Z,101657.34
2022-10-05T20:29:32.413Z,101651.31
2022-10-05T20:31:59.809Z,101650.41
2022-10-05T20:34:26.335Z,101656.44
2022-10-05T20:36:53.381Z,101664.19
2022-10-05T20:39:21.332Z,101675.44
2022-10-05T20:41:47.902Z,101667.63
2022-10-05T20:44:14.950Z,101680.59
2022-10-05T20:46:42.154Z,101684.03
2022-10-05T20:49:10.970Z,101699.59
2022-10-05T20:51:39.227Z,101690.00
2022-10-05T20:54:06.978Z,101707.34
2022-10-05T20:56:33.883Z,101712.50
2022-10-05T20:59:00.437Z,101707.19
2022-10-05T21:01:27.777Z,101716.72
2022-10-05T21:03:55.112Z,101711.50
2022-10-05T21:06:22.226Z,101706.28
2022-10-05T21:08:51.353Z,101714.94
2022-10-05T21:11:17.850Z,101714.94
2022-10-05T21:13:45.422Z,101721.84
2022-10-05T21:16:16.824Z,101720.09
2022-10-05T21:18:47.788Z,101726.97
2022-10-05T21:21:18.548Z,101742.53
2022-10-05T21:23:46.492Z,101744.22
2022-10-05T21:26:13.931Z,101757.13
2022-10-05T21:28:41.507Z,101751.91
2022-10-05T21:31:09.003Z,101755.22
2022-10-05T21:33:35.944Z,101758.63
2022-10-05T21:36:02.789Z,101771.56
2022-10-05T21:38:30.433Z,101769.81
2022-10-05T21:40:57.289Z,101759.31
2022-10-05T21:43:24.053Z,101772.19
2022-10-05T21:45:50.714Z,101774.72
2022-10-05T21:48:18.169Z,101771.25
2022-10-05T21:50:45.462Z,101771.16
2022-10-05T21:53:14.632Z,101781.50
2022-10-05T21:55:44.211Z,101781.41
2022-10-05T21:58:12.853Z,101791.75
2022-10-05T22:00:40.386Z,101794.41
2022-10-05T22:03:08.487Z,101801.34
2022-10-05T22:05:35.177Z,101803.88
2022-10-05T22:08:01.747Z,101809.09
2022-10-05T22:10:29.062Z,101821.25
2022-10-05T22:13:03.883Z,101817.00
2022-10-05T22:15:31.631Z,101820.44
2022-10-05T22:17:59.698Z,101833.38
2022-10-05T22:20:26.729Z,101823.81
2022-10-05T22:22:54.021Z,101835.91
2022-10-05T22:25:21.560Z,101838.41
2022-10-05T22:27:49.687Z,101844.50
2022-10-05T22:30:16.378Z,101847.94
2022-10-05T22:32:43.785Z,101856.47
2022-10-05T22:35:11.664Z,101867.75
2022-10-05T22:37:38.797Z,101880.69
2022-10-05T22:40:07.434Z,101876.38
2022-10-05T22:42:34.425Z,101897.16
2022-10-05T22:45:00.888Z,101896.34
2022-10-05T22:47:27.420Z,101891.91
2022-10-05T22:49:53.922Z,101900.53
2022-10-05T22:52:20.378Z,101906.56
2022-10-05T22:54:46.888Z,101915.16
2022-10-05T22:57:13.392Z,101916.84
2022-10-05T22:59:39.896Z,101921.13
2022-10-05T23:02:06.863Z,101918.44
2022-10-05T23:04:33.407Z,101927.81
2022-10-05T23:06:59.919Z,101945.16
2022-10-05T23:09:26.585Z,101942.56
2022-10-05T23:11:54.419Z,101935.63
2022-10-05T23:14:21.606Z,101940.94
2022-10-05T23:16:48.271Z,101930.59
2022-10-05T23:19:14.842Z,101927.28
2022-10-05T23:21:41.871Z,101940.22
2022-10-05T23:24:08.563Z,101948.81
2022-10-05T23:26:35.386Z,101942.69
2022-10-05T23:29:01.818Z,101955.56
2022-10-05T23:31:31.140Z,101954.69
2022-10-05T23:33:57.697Z,101965.91
2022-10-05T23:36:32.227Z,101964.25
2022-10-05T23:38:59.156Z,101967.66
2022-10-05T23:41:25.936Z,101982.50
2022-10-05T23:43:54.729Z,101975.75
2022-10-05T23:46:21.840Z,101981.63
2022-10-05T23:48:50.474Z,101990.25
2022-10-05T23:51:17.647Z,102007.38
2022-10-05T23:53:45.248Z,102008.09
2022-10-05T23:56:12.936Z,102014.06
2022-10-05T23:58:40.210Z,102020.84
